Ana Sayfa
METAR-TAF:

METAR-TAF

Havaalanları :

Katherine, Avustralya

Enlem: 14-26S, Boylam: 132-16E, yükseklik: 108 m

Güncel hava durumu gözlemi

Rapor saat 15:00 UTC de 1 saat ve 17 dakika önce yapıldı.
Rüzgar güney/güneybatıdan 2 kt
Sıcaklık 24°C
Nem 31%
Basınç 1009 hPa
Görüş mesafesi 10 km veya daha fazla

METAR: YPTN 141500Z AUTO 21002KT 9999 // NCD 24/06 Q1009

Saat: 01:47 (16:17 UTC)

Tahmin

Rapor saat 10:50 UTC de 5 saat ve 27 dakika önce yapıldı.
Ayın 14'si saat 12 UTC'den ayın 15'si saat 12 UTC'ye kadar geçerli Tahmin
Rüzgar değişken yönden 5 kt
Görüş mesafesi 10 km veya daha fazla
1500 m altında bulut yok ve kümülonimbus yok
Ayın 15'si saat 0200 UTC'den
Rüzgar doğu/güneydoğudan 13 kt
Görüş mesafesi 10 km veya daha fazla
1500 m altında bulut yok ve kümülonimbus yok

TAF: YPTN 141050Z 1412/1512 VRB05KT CAVOK FM150200 12013KT CAVOK

4.000'den fazla havaalanı için hava durumu gözlemleri ve tahminleri (METAR ve TAF raporları).

Kullanılabilir istasyonlar harita üzerinde sarı ve kırmızı noktalarla gösterilir.

İstasyonun adını görmek için fareyi noktanın üzerinde gezdirin.

Sonrasında hava gözlem ve tahminlerini görmek için tıklayın.

Haritayı değiştirmek için: yaklaştırmak için siyah artı işaretli yeşil düğmeye ve uzaklaştırmak için de eksi işaretli düğmeye hızla tıklayın; bitişik haritalar için yeşil okları kullanın.


METAR-TAF: